Time;durP1;ratioP1;P1;durP2;ratioP2;P2;SDS_P1;SDS_P2;PMS_P1;PMS_P2;Temp;Humidity;BMP_temperature;BMP_pressure;BME280_temperature;BME280_humidity;BME280_pressure;Samples;Min_cycle;Max_cycle;Signal;HPM_P1;HPM_P2
2021/09/18 00:02:08;;;;;;;2.30;2.10;;;17.30;75.50;;;;;;5071198;28;20039;-82
2021/09/18 00:04:34;;;;;;;2.38;2.03;;;17.30;75.50;;;;;;5071070;28;20032;-83
2021/09/18 00:06:59;;;;;;;2.95;2.25;;;17.30;75.60;;;;;;5071345;28;20035;-82
2021/09/18 00:09:25;;;;;;;2.40;2.17;;;17.30;75.60;;;;;;5070849;28;20020;-83
2021/09/18 00:11:50;;;;;;;2.20;2.00;;;17.20;75.60;;;;;;5071166;28;20094;-83
2021/09/18 00:14:20;;;;;;;2.88;2.08;;;17.30;75.70;;;;;;5070170;28;20016;-82
2021/09/18 00:16:45;;;;;;;3.75;2.28;;;17.20;75.70;;;;;;5070706;28;20024;-82
2021/09/18 00:19:11;;;;;;;3.38;2.28;;;17.20;75.80;;;;;;5070572;28;20038;-81
2021/09/18 00:21:37;;;;;;;3.83;2.58;;;17.20;75.80;;;;;;5070956;28;20021;-82
2021/09/18 00:24:03;;;;;;;3.15;2.17;;;17.10;75.90;;;;;;5070710;28;20037;-81
2021/09/18 00:26:32;;;;;;;3.90;2.33;;;17.10;75.90;;;;;;5069981;28;20023;-82
2021/09/18 00:29:01;;;;;;;2.83;2.15;;;17.00;76.00;;;;;;5071069;28;20055;-82
2021/09/18 00:31:27;;;;;;;3.38;2.40;;;17.00;76.00;;;;;;5071329;28;20436;-82
2021/09/18 00:33:53;;;;;;;2.85;2.28;;;17.00;76.60;;;;;;5070236;28;21681;-81
2021/09/18 00:36:20;;;;;;;3.35;2.10;;;17.00;76.00;;;;;;5070379;28;20055;-82
2021/09/18 00:38:46;;;;;;;3.50;2.30;;;17.00;76.00;;;;;;5071220;28;20020;-82
2021/09/18 00:41:12;;;;;;;3.00;2.13;;;17.00;76.00;;;;;;5071101;28;20024;-81
2021/09/18 00:43:38;;;;;;;2.83;2.17;;;17.00;76.00;;;;;;5070849;28;20607;-82
2021/09/18 00:46:03;;;;;;;2.63;2.00;;;17.00;76.00;;;;;;5070564;28;20108;-82
2021/09/18 00:48:29;;;;;;;3.35;2.05;;;17.00;76.00;;;;;;5070865;28;20031;-83
2021/09/18 00:50:55;;;;;;;2.10;1.83;;;17.00;76.00;;;;;;5071292;28;20035;-83
2021/09/18 00:53:22;;;;;;;2.13;1.92;;;16.90;76.00;;;;;;5070430;28;20021;-83
2021/09/18 00:55:48;;;;;;;2.63;2.10;;;16.90;76.00;;;;;;5070385;28;20021;-83
2021/09/18 00:58:14;;;;;;;2.72;2.17;;;16.90;76.00;;;;;;5070855;28;20024;-81
2021/09/18 01:00:39;;;;;;;2.90;2.25;;;16.90;76.10;;;;;;5069214;28;20107;-81
2021/09/18 01:03:05;;;;;;;2.95;2.30;;;16.90;76.10;;;;;;5068801;28;20090;-81
2021/09/18 01:05:31;;;;;;;2.95;2.40;;;16.80;76.10;;;;;;5069836;28;20056;-81
2021/09/18 01:07:59;;;;;;;2.67;2.17;;;16.80;76.20;;;;;;5068783;28;20033;-80
2021/09/18 01:10:24;;;;;;;2.67;2.30;;;16.80;76.20;;;;;;5070817;28;20166;-82
2021/09/18 01:13:07;;;;;;;2.25;2.05;;;16.80;76.30;;;;;;5070513;28;20103;-82
2021/09/18 01:15:35;;;;;;;2.90;2.40;;;16.80;76.40;;;;;;5061328;28;20036;-82
2021/09/18 01:18:03;;;;;;;3.33;2.65;;;16.80;76.40;;;;;;5058974;28;20120;-82
2021/09/18 01:20:29;;;;;;;3.28;2.40;;;16.70;76.30;;;;;;5067913;28;20134;-81
2021/09/18 01:23:00;;;;;;;3.13;2.30;;;16.70;76.30;;;;;;5071846;28;20048;-82
2021/09/18 01:25:28;;;;;;;3.42;2.60;;;16.70;76.40;;;;;;5072929;28;20425;-81
2021/09/18 01:27:53;;;;;;;3.55;2.45;;;16.70;76.50;;;;;;5071007;28;20170;-81
2021/09/18 01:30:25;;;;;;;3.08;2.45;;;16.60;76.50;;;;;;5069592;28;20100;-81
2021/09/18 01:32:52;;;;;;;4.10;2.78;;;16.60;76.50;;;;;;5077690;28;20394;-81
2021/09/18 01:35:18;;;;;;;3.72;2.70;;;16.60;76.60;;;;;;5074860;28;20021;-81
2021/09/18 01:37:49;;;;;;;4.07;2.75;;;16.60;76.70;;;;;;5075202;28;20024;-81
2021/09/18 01:40:20;;;;;;;4.50;2.50;;;16.50;76.70;;;;;;5076686;28;20051;-82
2021/09/18 01:42:46;;;;;;;3.15;2.55;;;16.50;76.80;;;;;;5085511;28;20381;-81
2021/09/18 01:45:13;;;;;;;3.33;2.67;;;16.50;76.80;;;;;;5073841;28;20372;-82
2021/09/18 01:47:50;;;;;;;4.15;2.80;;;16.50;76.90;;;;;;5073108;28;20274;-82
2021/09/18 01:50:19;;;;;;;3.13;2.40;;;16.40;76.90;;;;;;5072549;28;20033;-81
2021/09/18 01:52:47;;;;;;;2.90;2.60;;;16.50;76.90;;;;;;5073813;28;20486;-82
2021/09/18 01:55:14;;;;;;;4.40;2.53;;;16.40;76.80;;;;;;5070910;28;20024;-80
2021/09/18 01:57:48;;;;;;;3.58;2.47;;;16.40;76.90;;;;;;5064500;28;20021;-81
2021/09/18 02:00:15;;;;;;;3.00;2.50;;;16.40;77.00;;;;;;5068210;28;21909;-81
2021/09/18 02:02:41;;;;;;;3.15;2.35;;;16.40;77.00;;;;;;5054766;28;20028;-81
2021/09/18 02:05:07;;;;;;;3.13;2.35;;;16.40;77.00;;;;;;5068479;28;20107;-81
2021/09/18 02:07:33;;;;;;;3.03;2.65;;;16.40;77.00;;;;;;5066399;28;20012;-79
2021/09/18 02:09:59;;;;;;;3.95;2.63;;;16.30;77.00;;;;;;5068127;28;20036;-80
2021/09/18 02:12:24;;;;;;;4.28;2.45;;;16.30;77.00;;;;;;5068420;28;20033;-82
2021/09/18 02:14:50;;;;;;;3.33;2.58;;;16.30;77.00;;;;;;5067062;28;20596;-81
2021/09/18 02:17:16;;;;;;;3.30;2.60;;;16.30;76.90;;;;;;5062946;28;20505;-82
2021/09/18 02:19:41;;;;;;;3.33;3.00;;;16.30;77.10;;;;;;5060562;28;20041;-80
2021/09/18 02:22:07;;;;;;;3.03;2.63;;;16.30;77.20;;;;;;5083789;28;20493;-81
2021/09/18 02:24:32;;;;;;;3.33;2.67;;;16.20;77.20;;;;;;5072721;28;20028;-81
2021/09/18 02:26:58;;;;;;;5.82;2.60;;;16.20;77.40;;;;;;5071470;28;20020;-81
2021/09/18 02:29:23;;;;;;;3.58;2.60;;;16.10;77.40;;;;;;5072407;28;20051;-81
2021/09/18 02:31:49;;;;;;;3.25;2.72;;;16.10;77.50;;;;;;5072948;28;20025;-80
2021/09/18 02:34:14;;;;;;;4.00;2.80;;;16.10;77.50;;;;;;5072979;28;20434;-79
2021/09/18 02:36:40;;;;;;;3.20;2.60;;;16.10;77.50;;;;;;5067605;28;20021;-81
2021/09/18 02:39:05;;;;;;;3.08;2.58;;;16.20;77.50;;;;;;5070810;28;20040;-80
2021/09/18 02:41:31;;;;;;;3.75;2.90;;;16.20;77.50;;;;;;5077096;28;20030;-81
2021/09/18 02:43:56;;;;;;;3.35;2.97;;;16.20;77.40;;;;;;5072029;28;20036;-81
2021/09/18 02:46:22;;;;;;;3.72;2.47;;;16.20;77.40;;;;;;5080993;28;20035;-81
2021/09/18 02:48:47;;;;;;;3.97;2.55;;;16.10;78.00;;;;;;5072341;28;20467;-80
2021/09/18 02:51:13;;;;;;;3.08;2.78;;;16.10;77.40;;;;;;5074166;28;20119;-79
2021/09/18 02:53:38;;;;;;;3.30;2.72;;;16.10;77.40;;;;;;5070761;28;20029;-79
2021/09/18 02:56:04;;;;;;;4.38;2.92;;;16.10;77.50;;;;;;5073039;28;20012;-79
2021/09/18 02:58:30;;;;;;;4.32;2.92;;;16.10;77.40;;;;;;5071695;28;20028;-79
2021/09/18 03:00:55;;;;;;;4.05;3.08;;;16.10;77.40;;;;;;5072323;28;20032;-79
2021/09/18 03:03:21;;;;;;;3.45;2.97;;;16.10;77.30;;;;;;5075041;28;20066;-80
2021/09/18 03:05:46;;;;;;;3.90;3.03;;;16.10;77.40;;;;;;5076241;28;20027;-81
2021/09/18 03:08:12;;;;;;;4.63;3.08;;;16.10;77.50;;;;;;5087211;28;20679;-79
2021/09/18 03:10:37;;;;;;;5.22;3.25;;;16.10;77.40;;;;;;5072035;28;20052;-80
2021/09/18 03:13:03;;;;;;;3.53;2.80;;;16.00;77.40;;;;;;5070963;28;20085;-79
2021/09/18 03:15:28;;;;;;;4.07;2.88;;;16.00;77.40;;;;;;5072262;28;20067;-78
2021/09/18 03:17:55;;;;;;;5.25;3.20;;;16.00;77.50;;;;;;5070170;28;20040;-79
2021/09/18 03:20:21;;;;;;;7.28;3.78;;;16.00;77.60;;;;;;5071035;28;20046;-79
2021/09/18 03:22:46;;;;;;;5.18;3.78;;;16.00;77.50;;;;;;5070559;28;20041;-80
2021/09/18 03:25:12;;;;;;;5.28;3.90;;;16.00;77.40;;;;;;5071679;28;20035;-79
2021/09/18 03:27:38;;;;;;;4.93;3.85;;;16.00;77.40;;;;;;5071640;28;20086;-80
2021/09/18 03:30:05;;;;;;;6.00;4.20;;;16.00;77.40;;;;;;5071660;28;20032;-80
2021/09/18 03:32:31;;;;;;;6.90;4.10;;;16.00;77.40;;;;;;5071981;28;20078;-79
2021/09/18 03:34:56;;;;;;;6.07;4.15;;;16.00;77.50;;;;;;5071871;28;20032;-79
2021/09/18 03:37:22;;;;;;;5.90;4.10;;;16.00;77.40;;;;;;5069432;28;20021;-79
2021/09/18 03:39:48;;;;;;;5.57;3.85;;;16.00;77.60;;;;;;5072072;28;20093;-80
2021/09/18 03:42:13;;;;;;;5.25;3.67;;;15.90;77.60;;;;;;5071326;28;20028;-80
2021/09/18 03:44:39;;;;;;;5.35;3.85;;;16.00;77.80;;;;;;5071191;28;20021;-80
2021/09/18 03:47:05;;;;;;;5.78;3.72;;;15.90;77.70;;;;;;5049360;28;20078;-79
2021/09/18 03:49:30;;;;;;;5.85;3.83;;;15.90;77.70;;;;;;5069740;28;20017;-80
2021/09/18 03:51:56;;;;;;;5.07;3.78;;;15.90;77.90;;;;;;5071383;28;20020;-79
2021/09/18 03:54:21;;;;;;;5.30;3.58;;;15.90;77.90;;;;;;5071108;28;20112;-80
2021/09/18 03:56:47;;;;;;;6.65;3.72;;;15.90;78.00;;;;;;5070818;28;20084;-80
2021/09/18 03:59:12;;;;;;;4.75;3.38;;;15.90;78.00;;;;;;5071475;28;20020;-79
2021/09/18 04:01:38;;;;;;;4.60;3.58;;;15.90;78.00;;;;;;5071080;28;20079;-80
2021/09/18 04:04:04;;;;;;;5.97;4.22;;;15.80;78.00;;;;;;5069965;28;20035;-80
2021/09/18 04:06:29;;;;;;;5.18;3.92;;;15.80;78.10;;;;;;5070547;28;20016;-80
2021/09/18 04:08:55;;;;;;;5.32;4.05;;;15.80;78.20;;;;;;5071735;28;20402;-80
2021/09/18 04:11:20;;;;;;;6.07;4.13;;;15.70;78.30;;;;;;5070564;28;20107;-78
2021/09/18 04:13:47;;;;;;;5.72;4.32;;;15.70;78.30;;;;;;5071392;28;20027;-78
2021/09/18 04:16:13;;;;;;;6.20;3.83;;;15.70;78.30;;;;;;5070755;28;20159;-80
2021/09/18 04:18:38;;;;;;;5.25;3.70;;;15.70;78.30;;;;;;5070107;28;20108;-80
2021/09/18 04:21:04;;;;;;;4.63;3.33;;;15.70;78.40;;;;;;5070902;28;20487;-81
2021/09/18 04:23:32;;;;;;;5.13;3.35;;;15.70;78.50;;;;;;5071040;28;20123;-82
2021/09/18 04:25:58;;;;;;;4.63;3.35;;;15.70;78.60;;;;;;5069490;28;20073;-80
2021/09/18 04:28:24;;;;;;;4.53;3.38;;;15.70;78.50;;;;;;5071251;28;20460;-79
2021/09/18 04:30:49;;;;;;;4.43;3.10;;;15.70;78.50;;;;;;5070522;28;20036;-80
2021/09/18 04:33:15;;;;;;;4.65;3.53;;;15.70;78.50;;;;;;5070850;28;20036;-79
2021/09/18 04:35:40;;;;;;;3.67;2.90;;;15.70;78.50;;;;;;5070961;28;20463;-79
2021/09/18 04:38:06;;;;;;;3.75;3.08;;;15.70;78.50;;;;;;5069110;28;20085;-80
2021/09/18 04:40:32;;;;;;;4.15;3.00;;;15.60;78.60;;;;;;5070783;28;20036;-80
2021/09/18 04:42:58;;;;;;;4.20;3.20;;;15.60;78.60;;;;;;5070257;28;20036;-80
2021/09/18 04:45:24;;;;;;;4.82;2.92;;;15.70;78.80;;;;;;5070629;28;20016;-79
2021/09/18 04:47:49;;;;;;;6.30;3.35;;;15.60;78.70;;;;;;5069973;28;20025;-81
2021/09/18 04:50:15;;;;;;;4.18;3.13;;;15.60;78.70;;;;;;5070968;28;20387;-80
2021/09/18 04:52:40;;;;;;;3.97;3.03;;;15.60;78.80;;;;;;5070313;28;20493;-81
2021/09/18 04:55:07;;;;;;;4.18;3.03;;;15.60;78.80;;;;;;5069969;28;20525;-82
2021/09/18 04:57:32;;;;;;;4.97;3.28;;;15.60;78.80;;;;;;5070210;28;20377;-81
2021/09/18 04:59:58;;;;;;;4.00;3.25;;;15.60;78.70;;;;;;5072745;28;20028;-82
2021/09/18 05:02:23;;;;;;;4.28;3.17;;;15.60;78.70;;;;;;5074591;28;20031;-81
2021/09/18 05:04:49;;;;;;;3.63;2.85;;;15.60;78.70;;;;;;5074863;28;20039;-81
2021/09/18 05:07:14;;;;;;;3.67;2.80;;;15.50;78.80;;;;;;5069374;28;20112;-82
2021/09/18 05:09:40;;;;;;;4.43;3.10;;;15.50;78.90;;;;;;5073044;28;20390;-82
2021/09/18 05:12:06;;;;;;;4.82;3.45;;;15.50;78.90;;;;;;5073092;28;20017;-82
2021/09/18 05:14:31;;;;;;;5.05;3.40;;;15.60;78.90;;;;;;5072557;28;20036;-81
2021/09/18 05:16:57;;;;;;;4.13;3.33;;;15.60;78.80;;;;;;5072327;28;20028;-80
2021/09/18 05:19:22;;;;;;;3.75;2.97;;;15.60;78.80;;;;;;5064224;28;20040;-79
2021/09/18 05:21:48;;;;;;;4.38;3.40;;;15.60;78.90;;;;;;5076974;28;20027;-79
2021/09/18 05:24:13;;;;;;;4.78;3.33;;;15.50;78.80;;;;;;5075818;28;20067;-78
2021/09/18 05:26:39;;;;;;;4.15;3.55;;;15.50;78.90;;;;;;5072720;28;20077;-79
2021/09/18 05:29:05;;;;;;;4.55;3.10;;;15.50;78.80;;;;;;5073283;28;20036;-78
2021/09/18 05:31:30;;;;;;;4.18;3.28;;;15.50;78.90;;;;;;5079887;28;20013;-79
2021/09/18 05:33:56;;;;;;;4.20;3.20;;;15.50;78.90;;;;;;5078475;28;20367;-79
2021/09/18 05:36:22;;;;;;;3.60;2.92;;;15.50;78.90;;;;;;5072580;28;20395;-79
2021/09/18 05:38:47;;;;;;;4.13;3.35;;;15.50;79.60;;;;;;5066656;28;20689;-80
2021/09/18 05:41:13;;;;;;;4.20;3.53;;;15.60;78.80;;;;;;5073595;28;20043;-79
2021/09/18 05:43:39;;;;;;;4.93;3.55;;;15.60;78.70;;;;;;5065569;28;21345;-80
2021/09/18 05:46:04;;;;;;;4.00;3.35;;;15.60;78.50;;;;;;5073361;28;20449;-79
2021/09/18 05:48:30;;;;;;;4.35;3.00;;;15.70;78.50;;;;;;5077457;28;20039;-78
2021/09/18 05:50:55;;;;;;;5.38;3.70;;;15.70;78.40;;;;;;5074166;28;20027;-80
2021/09/18 05:53:21;;;;;;;4.05;3.58;;;15.80;78.60;;;;;;5073478;28;20108;-80
2021/09/18 05:55:46;;;;;;;4.18;3.72;;;15.90;78.90;;;;;;5078032;28;20040;-82
2021/09/18 05:58:12;;;;;;;4.50;3.67;;;16.10;78.90;;;;;;5074131;28;20375;-80
2021/09/18 06:00:37;;;;;;;5.43;3.53;;;16.40;78.40;;;;;;5073966;28;20036;-80
2021/09/18 06:03:03;;;;;;;4.82;4.03;;;16.80;77.10;;;;;;5072664;28;20044;-80
2021/09/18 06:05:29;;;;;;;5.05;3.75;;;17.10;75.90;;;;;;5072695;28;20036;-79
2021/09/18 06:07:54;;;;;;;3.95;3.42;;;17.50;74.90;;;;;;5071857;28;20051;-78
2021/09/18 06:10:20;;;;;;;4.80;4.30;;;17.70;74.10;;;;;;5071128;28;20113;-79
2021/09/18 06:12:45;;;;;;;4.90;4.18;;;17.60;74.20;;;;;;5073255;28;20463;-80
2021/09/18 06:15:11;;;;;;;4.53;3.58;;;17.60;74.40;;;;;;5072900;28;20069;-80
2021/09/18 06:17:37;;;;;;;5.22;4.47;;;17.50;74.70;;;;;;5073010;28;20031;-80
2021/09/18 06:20:04;;;;;;;5.35;4.38;;;17.50;75.00;;;;;;5073506;28;20032;-79
2021/09/18 06:22:29;;;;;;;4.45;3.95;;;17.50;75.00;;;;;;5073324;28;20477;-79
2021/09/18 06:24:55;;;;;;;4.82;4.20;;;17.40;75.10;;;;;;5073753;28;20082;-80
2021/09/18 06:27:20;;;;;;;4.97;3.88;;;17.30;75.40;;;;;;5072162;28;20485;-81
2021/09/18 06:29:46;;;;;;;3.95;3.28;;;17.30;75.60;;;;;;5070747;28;20099;-79
2021/09/18 06:32:11;;;;;;;4.40;3.70;;;17.20;75.90;;;;;;5070592;28;20044;-80
2021/09/18 06:34:37;;;;;;;5.35;4.30;;;17.20;76.00;;;;;;5067487;28;20046;-81
2021/09/18 06:37:04;;;;;;;4.10;3.60;;;17.20;76.00;;;;;;5071318;28;20016;-81
2021/09/18 06:39:31;;;;;;;4.82;3.55;;;17.20;76.20;;;;;;5072279;28;20074;-81
2021/09/18 06:41:56;;;;;;;3.88;3.33;;;17.20;76.20;;;;;;5070989;28;20111;-82
2021/09/18 06:44:22;;;;;;;4.90;3.42;;;17.20;76.10;;;;;;5071491;28;20498;-81
2021/09/18 06:46:47;;;;;;;3.80;3.25;;;17.30;76.00;;;;;;5070638;28;20651;-81
2021/09/18 06:49:13;;;;;;;4.15;3.05;;;17.30;75.90;;;;;;5068590;28;20032;-81
2021/09/18 06:51:38;;;;;;;4.03;3.30;;;17.40;75.80;;;;;;5065322;28;20013;-81
2021/09/18 06:54:05;;;;;;;4.00;3.00;;;17.50;75.70;;;;;;5063441;28;20052;-80
2021/09/18 06:56:31;;;;;;;4.00;3.30;;;17.50;75.70;;;;;;5067366;28;20481;-80
2021/09/18 06:58:56;;;;;;;4.72;3.40;;;17.60;75.70;;;;;;5071505;28;20077;-80
2021/09/18 07:01:23;;;;;;;4.43;3.13;;;17.70;75.70;;;;;;5064017;28;20023;-80
2021/09/18 07:03:49;;;;;;;5.35;4.30;;;17.80;75.60;;;;;;5064914;28;20032;-79
2021/09/18 07:06:14;;;;;;;5.20;4.28;;;17.80;75.60;;;;;;5069320;28;20028;-80
2021/09/18 07:08:40;;;;;;;2.83;2.20;;;17.90;76.30;;;;;;5078213;28;20509;-81
2021/09/18 07:11:05;;;;;;;4.28;3.50;;;18.00;75.60;;;;;;5069764;28;20082;-80
2021/09/18 07:13:31;;;;;;;3.45;2.95;;;18.00;75.50;;;;;;5072843;28;20012;-80
2021/09/18 07:15:57;;;;;;;3.90;3.33;;;18.10;75.40;;;;;;5069072;28;20398;-80
2021/09/18 07:18:22;;;;;;;4.53;3.03;;;18.20;75.30;;;;;;5064473;28;20032;-81
2021/09/18 07:20:48;;;;;;;5.32;4.50;;;18.30;75.30;;;;;;5068942;28;20024;-81
2021/09/18 07:23:13;;;;;;;5.68;4.88;;;18.40;75.40;;;;;;5080351;28;20450;-82
2021/09/18 07:25:39;;;;;;;5.47;4.43;;;18.30;75.50;;;;;;5064079;28;20394;-88
2021/09/18 07:28:05;;;;;;;6.93;5.50;;;18.40;75.60;;;;;;5070819;28;20402;-84
2021/09/18 07:30:32;;;;;;;4.93;4.40;;;18.20;75.50;;;;;;5071707;28;20093;-84
2021/09/18 07:32:57;;;;;;;5.00;4.50;;;18.10;75.70;;;;;;5070058;28;20032;-83
2021/09/18 07:35:23;;;;;;;14.93;4.90;;;17.80;75.90;;;;;;5071800;28;20040;-83
2021/09/18 07:37:49;;;;;;;5.15;3.03;;;17.50;76.30;;;;;;5070809;28;20055;-81
2021/09/18 07:40:14;;;;;;;5.20;2.75;;;17.40;76.90;;;;;;5069134;28;20402;-81
2021/09/18 07:42:40;;;;;;;2.80;2.42;;;17.40;77.00;;;;;;5070643;28;20483;-87
2021/09/18 07:45:07;;;;;;;26.33;4.22;;;17.50;77.00;;;;;;5073303;28;20062;-78
2021/09/18 07:47:33;;;;;;;13.13;2.85;;;17.60;76.80;;;;;;5068457;28;20814;-83
2021/09/18 07:49:59;;;;;;;3.38;3.08;;;17.60;76.60;;;;;;5071954;28;20020;-84
2021/09/18 07:52:25;;;;;;;4.93;2.58;;;17.70;76.60;;;;;;5068771;28;20081;-83
2021/09/18 07:54:50;;;;;;;2.20;2.00;;;17.60;76.70;;;;;;5076371;28;20031;-84
2021/09/18 07:57:16;;;;;;;4.65;3.08;;;17.60;76.80;;;;;;5066377;28;20174;-83
2021/09/18 07:59:41;;;;;;;3.92;3.20;;;17.70;77.00;;;;;;5069314;28;20115;-81
2021/09/18 08:02:07;;;;;;;3.33;3.03;;;17.80;76.80;;;;;;5064158;28;20414;-82
2021/09/18 08:04:33;;;;;;;5.43;4.88;;;17.80;76.80;;;;;;5069673;28;20058;-81
2021/09/18 08:06:59;;;;;;;3.80;3.38;;;17.80;77.00;;;;;;5066734;28;20035;-80
2021/09/18 08:09:24;;;;;;;3.35;3.05;;;17.80;77.00;;;;;;5066102;28;20068;-80
2021/09/18 08:11:51;;;;;;;4.00;2.83;;;17.90;77.70;;;;;;5062598;28;20421;-78
2021/09/18 08:14:16;;;;;;;4.50;3.60;;;18.00;76.90;;;;;;5065455;28;20977;-78
2021/09/18 08:16:42;;;;;;;2.75;2.40;;;18.10;76.80;;;;;;5069257;28;20043;-80
2021/09/18 08:19:08;;;;;;;4.53;4.03;;;18.20;76.70;;;;;;5069426;28;20095;-82
2021/09/18 08:21:36;;;;;;;4.20;3.60;;;18.20;76.80;;;;;;5069079;28;20111;-82
2021/09/18 08:24:02;;;;;;;2.50;2.30;;;18.30;76.80;;;;;;5069037;28;20119;-83
2021/09/18 08:26:29;;;;;;;2.92;2.60;;;18.40;77.20;;;;;;5065793;28;20116;-83
2021/09/18 08:28:57;;;;;;;3.80;3.25;;;18.40;76.50;;;;;;5067293;28;20089;-82
2021/09/18 08:31:23;;;;;;;2.35;2.08;;;18.50;76.50;;;;;;5071749;28;20071;-83
2021/09/18 08:33:52;;;;;;;5.20;4.70;;;18.70;76.30;;;;;;5069590;28;20095;-83
2021/09/18 08:36:17;;;;;;;4.70;4.00;;;18.60;76.60;;;;;;5069130;28;20106;-84
2021/09/18 08:38:43;;;;;;;3.38;3.08;;;18.70;76.60;;;;;;5068392;28;20455;-83
2021/09/18 08:41:09;;;;;;;3.40;2.60;;;18.90;76.40;;;;;;5068960;28;20036;-83
2021/09/18 08:43:35;;;;;;;3.47;3.15;;;19.00;76.10;;;;;;5071301;28;20123;-83
2021/09/18 08:46:00;;;;;;;4.28;3.40;;;19.10;76.00;;;;;;5068191;28;20429;-83
2021/09/18 08:48:27;;;;;;;4.10;3.47;;;19.20;76.00;;;;;;5067417;28;20024;-84
2021/09/18 08:50:53;;;;;;;3.63;3.05;;;19.30;76.10;;;;;;5069722;28;20024;-85
2021/09/18 08:53:20;;;;;;;4.90;3.78;;;19.40;75.80;;;;;;5070724;28;20036;-86
2021/09/18 08:55:57;;;;;;;7.35;5.82;;;19.60;75.70;;;;;;5068918;28;20033;-85
2021/09/18 08:58:24;;;;;;;6.53;5.22;;;19.50;75.80;;;;;;5069124;28;20025;-88
2021/09/18 09:00:59;;;;;;;7.65;6.45;;;19.50;75.80;;;;;;5065050;28;20036;-87
2021/09/18 09:03:29;;;;;;;7.80;5.93;;;19.40;75.90;;;;;;5065887;28;20032;-86
2021/09/18 09:06:12;;;;;;;9.05;7.45;;;19.40;75.90;;;;;;5068734;28;20016;-86
2021/09/18 09:08:42;;;;;;;8.13;5.95;;;19.40;75.70;;;;;;5065586;28;20074;-86
2021/09/18 09:11:17;;;;;;;6.53;4.90;;;19.40;75.80;;;;;;5064536;28;20478;-85
2021/09/18 09:14:03;;;;;;;4.93;4.10;;;19.50;75.60;;;;;;5067763;28;20047;-83
2021/09/18 09:16:31;;;;;;;5.93;5.07;;;19.70;75.20;;;;;;5066942;28;20031;-84
2021/09/18 09:18:57;;;;;;;4.60;3.83;;;19.80;74.70;;;;;;5069680;28;20741;-85
2021/09/18 09:21:32;;;;;;;4.78;3.30;;;20.00;74.40;;;;;;5067124;28;20013;-85
2021/09/18 09:24:12;;;;;;;4.18;3.30;;;20.10;74.10;;;;;;5067743;28;20115;-85
2021/09/18 09:26:40;;;;;;;4.05;3.15;;;20.20;73.80;;;;;;5066675;28;20052;-85
2021/09/18 09:29:07;;;;;;;5.90;4.72;;;20.30;73.50;;;;;;5069607;28;20027;-85
2021/09/18 09:31:38;;;;;;;5.00;3.70;;;20.20;72.50;;;;;;5069928;28;20044;-85
2021/09/18 09:34:11;;;;;;;3.60;2.90;;;20.20;72.70;;;;;;5068317;28;20503;-84
2021/09/18 09:36:46;;;;;;;4.55;3.50;;;20.30;72.80;;;;;;5065807;28;20020;-86
2021/09/18 09:39:16;;;;;;;5.80;4.00;;;20.40;72.40;;;;;;5068569;28;20028;-85
2021/09/18 09:41:49;;;;;;;4.60;3.30;;;20.40;72.00;;;;;;5069246;28;20694;-85
2021/09/18 09:44:18;;;;;;;4.15;3.30;;;20.50;72.00;;;;;;5068467;28;20490;-85
2021/09/18 09:46:59;;;;;;;5.43;3.78;;;20.50;71.60;;;;;;5072418;28;20418;-85
2021/09/18 09:49:46;;;;;;;4.72;3.92;;;20.50;71.60;;;;;;5073426;28;20033;-84
2021/09/18 09:52:25;;;;;;;5.70;4.28;;;20.50;71.30;;;;;;5072183;28;20087;-85
2021/09/18 09:54:58;;;;;;;3.08;2.47;;;20.40;70.70;;;;;;5069877;28;20024;-84
2021/09/18 09:57:24;;;;;;;5.28;4.38;;;20.40;70.90;;;;;;5068957;28;20025;-84
2021/09/18 10:00:00;;;;;;;8.30;6.43;;;20.40;71.40;;;;;;5072868;28;20085;-85
2021/09/18 10:02:27;;;;;;;7.95;6.18;;;20.50;72.00;;;;;;5071020;28;20029;-84
2021/09/18 10:04:52;;;;;;;9.55;7.82;;;20.60;72.50;;;;;;5072276;28;20040;-84
2021/09/18 10:07:19;;;;;;;7.57;5.75;;;20.50;72.80;;;;;;5072469;28;20032;-84
2021/09/18 10:09:45;;;;;;;9.95;7.38;;;20.60;73.00;;;;;;5072736;28;20025;-82
2021/09/18 10:12:14;;;;;;;9.20;7.60;;;20.70;73.00;;;;;;5070300;28;20016;-86
2021/09/18 10:14:45;;;;;;;12.48;10.25;;;20.80;72.90;;;;;;5064018;28;20398;-81
2021/09/18 10:17:12;;;;;;;17.85;13.30;;;20.90;72.90;;;;;;5071393;28;20516;-83
2021/09/18 10:24:51;;;;;;;18.60;14.65;;;20.80;73.10;;;;;;5064256;28;20051;-81
2021/09/18 10:27:19;;;;;;;14.27;11.20;;;20.70;73.30;;;;;;5070157;28;20041;-81
2021/09/18 10:29:47;;;;;;;14.10;10.95;;;20.70;73.40;;;;;;5074960;28;20101;-81
2021/09/18 10:32:14;;;;;;;12.52;10.23;;;20.80;73.40;;;;;;5073047;28;20033;-82
2021/09/18 10:34:39;;;;;;;13.57;11.02;;;20.80;73.10;;;;;;5077824;28;20027;-82
2021/09/18 10:37:05;;;;;;;14.05;10.40;;;20.70;72.80;;;;;;5081893;28;20119;-83
2021/09/18 10:39:31;;;;;;;12.13;9.75;;;20.90;73.00;;;;;;5074967;28;20024;-83
2021/09/18 10:41:59;;;;;;;15.05;12.07;;;20.90;72.70;;;;;;5073821;28;20143;-84
2021/09/18 10:44:46;;;;;;;9.40;7.72;;;20.90;72.40;;;;;;5082899;28;20032;-84
2021/09/18 10:47:42;;;;;;;19.05;15.30;;;21.10;72.40;;;;;;5072445;28;20107;-84
2021/09/18 10:50:28;;;;;;;17.77;14.00;;;21.00;72.00;;;;;;5075997;28;20024;-83
2021/09/18 10:53:03;;;;;;;17.65;13.90;;;20.90;72.20;;;;;;5069606;28;20090;-83
2021/09/18 10:55:30;;;;;;;18.27;13.82;;;20.80;72.40;;;;;;5072287;28;20516;-83
2021/09/18 10:57:55;;;;;;;16.33;12.85;;;20.80;72.70;;;;;;5072448;28;20028;-84
2021/09/18 11:00:21;;;;;;;16.48;12.48;;;20.90;73.40;;;;;;5073503;28;20556;-84
2021/09/18 11:03:00;;;;;;;20.92;17.08;;;20.90;72.70;;;;;;5065049;28;20083;-83
2021/09/18 11:05:26;;;;;;;21.05;16.98;;;20.90;72.40;;;;;;5078767;28;20112;-83
2021/09/18 11:08:00;;;;;;;15.68;12.40;;;20.80;72.50;;;;;;5081980;28;20104;-83
2021/09/18 11:10:28;;;;;;;13.10;10.32;;;20.90;72.70;;;;;;5075845;28;20039;-83
2021/09/18 11:13:09;;;;;;;23.55;18.27;;;21.00;72.40;;;;;;5075493;28;20226;-84
2021/09/18 11:15:44;;;;;;;19.77;15.25;;;21.00;72.10;;;;;;5076629;28;20566;-82
2021/09/18 11:18:14;;;;;;;18.80;15.38;;;21.00;72.10;;;;;;5077605;28;20021;-83
2021/09/18 11:20:40;;;;;;;20.27;14.57;;;21.00;72.00;;;;;;5073143;28;20024;-83
2021/09/18 11:23:06;;;;;;;14.85;12.07;;;21.00;71.90;;;;;;5074303;28;20044;-84
2021/09/18 11:25:34;;;;;;;15.68;11.15;;;21.20;71.90;;;;;;5071231;28;20043;-83
2021/09/18 11:28:02;;;;;;;19.00;14.38;;;21.30;71.20;;;;;;5079113;28;20028;-83
2021/09/18 11:30:57;;;;;;;18.85;14.40;;;21.40;70.80;;;;;;5079586;28;20104;-83
2021/09/18 11:33:24;;;;;;;21.50;16.63;;;21.50;69.80;;;;;;5052279;28;20049;-83
2021/09/18 11:35:57;;;;;;;21.02;17.33;;;21.50;69.80;;;;;;5090146;28;20148;-83
2021/09/18 11:38:29;;;;;;;17.33;13.73;;;21.50;70.00;;;;;;5078705;28;20470;-85
2021/09/18 11:41:12;;;;;;;23.23;17.92;;;21.50;69.90;;;;;;5082573;28;20398;-84
2021/09/18 11:43:38;;;;;;;;;;;21.40;69.40;;;;;;5075811;28;20033;-84
2021/09/18 11:46:04;;;;;;;16.15;13.23;;;21.40;69.90;;;;;;5070829;28;19908;-86
2021/09/18 11:48:31;;;;;;;17.70;12.75;;;21.60;69.90;;;;;;5070918;28;20029;-81
2021/09/18 11:50:58;;;;;;;21.42;15.13;;;21.60;69.80;;;;;;5071707;28;20025;-82
2021/09/18 11:53:24;;;;;;;19.17;14.13;;;21.70;69.50;;;;;;5084599;28;20110;-83
2021/09/18 11:55:55;;;;;;;18.08;13.52;;;21.70;69.40;;;;;;5074702;28;20410;-83
2021/09/18 11:58:26;;;;;;;20.23;15.65;;;21.70;69.00;;;;;;5083166;28;20021;-82
2021/09/18 12:00:56;;;;;;;21.52;16.98;;;21.60;68.90;;;;;;5070962;28;20028;-80
2021/09/18 12:03:44;;;;;;;20.25;15.02;;;21.60;68.90;;;;;;5072619;28;20552;-80
2021/09/18 12:06:11;;;;;;;19.23;15.63;;;21.60;69.20;;;;;;5061148;28;20050;-82
2021/09/18 12:08:39;;;;;;;20.55;16.70;;;21.40;69.20;;;;;;5069143;28;20103;-83
2021/09/18 12:11:08;;;;;;;18.90;14.30;;;21.40;69.30;;;;;;5068484;28;20504;-82
2021/09/18 12:13:43;;;;;;;18.95;15.18;;;21.40;69.50;;;;;;5066663;28;20433;-82
2021/09/18 12:16:09;;;;;;;17.23;13.10;;;21.50;69.30;;;;;;5067458;28;20016;-83
2021/09/18 12:18:36;;;;;;;20.40;17.20;;;21.50;69.10;;;;;;5065873;28;20032;-83
2021/09/18 12:21:07;;;;;;;20.55;16.25;;;21.50;68.50;;;;;;5067854;28;20021;-84
2021/09/18 12:23:38;;;;;;;21.20;16.40;;;21.40;68.50;;;;;;5062682;28;20028;-79
2021/09/18 12:26:05;;;;;;;21.23;16.10;;;21.40;68.30;;;;;;5070991;28;20020;-83
2021/09/18 12:28:33;;;;;;;15.52;11.70;;;21.30;68.10;;;;;;5069162;28;20516;-83
2021/09/18 12:31:00;;;;;;;17.75;13.30;;;21.30;68.20;;;;;;5070717;28;20044;-81
2021/09/18 12:33:29;;;;;;;13.10;9.55;;;21.30;67.50;;;;;;5068696;28;20142;-81
2021/09/18 12:36:07;;;;;;;16.48;12.80;;;21.40;67.70;;;;;;5075868;28;20028;-82
2021/09/18 12:38:33;;;;;;;13.27;10.02;;;21.60;67.20;;;;;;5072987;28;20020;-82
2021/09/18 12:41:03;;;;;;;17.00;12.27;;;21.70;67.20;;;;;;5069681;28;20012;-82
2021/09/18 12:43:28;;;;;;;9.45;7.53;;;21.80;66.30;;;;;;5070617;28;20090;-81
2021/09/18 12:46:14;;;;;;;11.40;9.43;;;22.00;66.20;;;;;;5072118;28;20032;-82
2021/09/18 12:48:40;;;;;;;13.93;10.70;;;22.00;65.40;;;;;;5075185;28;20074;-82
2021/09/18 12:51:26;;;;;;;8.20;6.65;;;22.00;65.00;;;;;;5068766;28;20093;-82